createdAt,value
2017-09-17T00:01:42.976Z,2.72
2017-09-17T00:04:10.758Z,3.30
2017-09-17T00:06:38.270Z,3.50
2017-09-17T00:09:05.806Z,3.50
2017-09-17T00:11:33.333Z,3.25
2017-09-17T00:14:00.848Z,2.92
2017-09-17T00:16:28.403Z,3.30
2017-09-17T00:18:55.910Z,2.83
2017-09-17T00:21:23.458Z,2.90
2017-09-17T00:23:50.986Z,3.47
2017-09-17T00:26:18.758Z,3.20
2017-09-17T00:28:47.039Z,3.30
2017-09-17T00:31:14.553Z,3.30
2017-09-17T00:33:42.076Z,3.25
2017-09-17T00:36:09.620Z,3.35
2017-09-17T00:38:37.889Z,3.83
2017-09-17T00:41:05.421Z,3.35
2017-09-17T00:43:32.933Z,4.35
2017-09-17T00:46:00.543Z,4.10
2017-09-17T00:48:28.043Z,4.00
2017-09-17T00:50:56.397Z,3.80
2017-09-17T00:53:23.912Z,3.60
2017-09-17T00:55:51.469Z,4.32
2017-09-17T00:58:19.018Z,4.05
2017-09-17T01:00:46.561Z,3.53
2017-09-17T01:03:14.934Z,3.22
2017-09-17T01:05:42.460Z,3.20
2017-09-17T01:08:10.033Z,3.05
2017-09-17T01:10:37.561Z,4.45
2017-09-17T01:13:05.116Z,4.40
2017-09-17T01:15:32.631Z,3.95
2017-09-17T01:18:00.180Z,4.62
2017-09-17T01:20:27.686Z,4.32
2017-09-17T01:22:55.217Z,4.20
2017-09-17T01:25:22.738Z,5.12
2017-09-17T01:27:50.358Z,4.95
2017-09-17T01:30:18.125Z,4.93
2017-09-17T01:32:45.650Z,5.20
2017-09-17T01:35:13.166Z,5.00
2017-09-17T01:37:40.714Z,5.40
2017-09-17T01:40:08.224Z,5.50
2017-09-17T01:42:35.757Z,5.95
2017-09-17T01:45:03.274Z,5.57
2017-09-17T01:47:30.822Z,5.90
2017-09-17T01:49:59.092Z,6.62
2017-09-17T01:52:26.605Z,6.37
2017-09-17T01:54:54.129Z,6.22
2017-09-17T01:57:22.390Z,6.15
2017-09-17T01:59:49.931Z,6.15
2017-09-17T02:02:17.455Z,5.57
2017-09-17T02:04:44.993Z,6.28
2017-09-17T02:07:12.518Z,6.03
2017-09-17T02:09:40.850Z,6.40
2017-09-17T02:12:08.390Z,5.93
2017-09-17T02:14:35.929Z,6.37
2017-09-17T02:17:04.239Z,5.85
2017-09-17T02:19:31.826Z,5.93
2017-09-17T02:21:59.352Z,6.93
2017-09-17T02:24:26.922Z,6.28
2017-09-17T02:26:54.459Z,6.95
2017-09-17T02:29:22.096Z,6.90
2017-09-17T02:31:49.824Z,6.85
2017-09-17T02:34:17.352Z,6.55
2017-09-17T02:36:45.621Z,7.35
2017-09-17T02:39:13.907Z,7.95
2017-09-17T02:41:42.178Z,7.70
2017-09-17T02:44:10.456Z,7.57
2017-09-17T02:46:38.725Z,5.75
2017-09-17T02:49:06.217Z,4.90
2017-09-17T02:51:33.753Z,5.93
2017-09-17T02:54:02.033Z,6.10
2017-09-17T02:56:30.321Z,6.32
2017-09-17T02:58:58.790Z,5.65
2017-09-17T03:01:27.073Z,6.32
2017-09-17T03:03:57.262Z,4.93
2017-09-17T03:06:24.806Z,5.70
2017-09-17T03:08:52.344Z,5.60
2017-09-17T03:11:19.903Z,6.45
2017-09-17T03:13:47.414Z,6.45
2017-09-17T03:16:14.949Z,6.57
2017-09-17T03:18:42.498Z,6.07
2017-09-17T03:21:10.064Z,6.45
2017-09-17T03:23:37.595Z,7.72
2017-09-17T03:26:05.157Z,7.32
2017-09-17T03:28:32.688Z,7.12
2017-09-17T03:31:01.002Z,7.50
2017-09-17T03:33:28.557Z,6.70
2017-09-17T03:35:56.139Z,7.45
2017-09-17T03:38:23.660Z,7.65
2017-09-17T03:40:51.165Z,8.30
2017-09-17T03:43:18.690Z,8.65
2017-09-17T03:45:46.236Z,8.68
2017-09-17T03:48:14.547Z,8.63
2017-09-17T03:50:42.070Z,8.30
2017-09-17T03:53:10.374Z,7.40
2017-09-17T03:55:37.913Z,8.02
2017-09-17T03:58:05.549Z,8.45
2017-09-17T04:00:33.068Z,7.78
2017-09-17T04:03:00.615Z,8.15
2017-09-17T04:05:28.162Z,8.70
2017-09-17T04:07:55.709Z,8.73
2017-09-17T04:10:23.244Z,8.63
2017-09-17T04:12:50.788Z,8.65
2017-09-17T04:15:18.336Z,8.98
2017-09-17T04:17:45.916Z,8.65
2017-09-17T04:20:13.472Z,10.30
2017-09-17T04:22:41.080Z,9.13
2017-09-17T04:25:09.362Z,8.70
2017-09-17T04:27:36.925Z,9.57
2017-09-17T04:30:04.466Z,9.88
2017-09-17T04:32:32.794Z,11.60
2017-09-17T04:35:00.347Z,10.45
2017-09-17T04:37:27.877Z,11.18
2017-09-17T04:39:55.442Z,11.88
2017-09-17T04:42:22.981Z,10.95
2017-09-17T04:44:50.580Z,11.02
2017-09-17T04:47:18.154Z,11.52
2017-09-17T04:49:45.785Z,10.30
2017-09-17T04:52:13.362Z,11.48
2017-09-17T04:54:40.917Z,10.63
2017-09-17T04:57:08.442Z,8.75
2017-09-17T04:59:36.091Z,8.90
2017-09-17T05:02:03.648Z,9.38
2017-09-17T05:04:32.133Z,9.60
2017-09-17T05:06:59.668Z,8.32
2017-09-17T05:09:27.225Z,8.63
2017-09-17T05:11:54.776Z,7.87
2017-09-17T05:14:22.318Z,7.62
2017-09-17T05:16:49.833Z,8.00
2017-09-17T05:19:17.359Z,7.35
2017-09-17T05:21:44.873Z,6.55
2017-09-17T05:24:12.384Z,6.78
2017-09-17T05:26:39.913Z,7.68
2017-09-17T05:29:08.235Z,7.07
2017-09-17T05:31:37.110Z,5.95
2017-09-17T05:34:04.671Z,5.50
2017-09-17T05:36:32.198Z,5.05
2017-09-17T05:38:59.733Z,5.25
2017-09-17T05:41:27.297Z,5.00
2017-09-17T05:43:55.713Z,4.50
2017-09-17T05:46:23.282Z,4.10
2017-09-17T05:48:50.810Z,4.05
2017-09-17T05:51:19.147Z,4.32
2017-09-17T05:53:46.710Z,4.87
2017-09-17T05:56:14.333Z,4.15
2017-09-17T05:58:41.908Z,4.50
2017-09-17T06:01:09.490Z,3.72
2017-09-17T06:03:37.046Z,3.33
2017-09-17T06:06:04.616Z,3.40
2017-09-17T06:08:32.178Z,3.30
2017-09-17T06:10:59.708Z,3.20
2017-09-17T06:13:27.238Z,4.18
2017-09-17T06:15:55.584Z,3.33
2017-09-17T06:18:23.139Z,4.47
2017-09-17T06:20:50.655Z,4.57
2017-09-17T06:23:19.212Z,3.53
2017-09-17T06:25:47.559Z,3.55
2017-09-17T06:28:15.141Z,3.90
2017-09-17T06:30:42.707Z,3.50
2017-09-17T06:33:11.083Z,3.33
2017-09-17T06:35:38.712Z,3.50
2017-09-17T06:38:06.336Z,4.60
2017-09-17T06:40:34.657Z,5.15
2017-09-17T06:43:02.226Z,4.72
2017-09-17T06:45:29.755Z,5.10
2017-09-17T06:47:57.302Z,5.05
2017-09-17T06:50:24.823Z,4.72
2017-09-17T06:52:52.377Z,3.62
2017-09-17T06:55:19.909Z,3.87
2017-09-17T06:57:47.463Z,4.03
2017-09-17T07:00:15.000Z,3.75
2017-09-17T07:02:42.550Z,4.15
2017-09-17T07:05:10.829Z,3.85
2017-09-17T07:07:39.158Z,3.30
2017-09-17T07:10:06.701Z,2.40
2017-09-17T07:12:34.255Z,2.65
2017-09-17T07:15:01.837Z,2.40
2017-09-17T07:17:29.407Z,3.25
2017-09-17T07:20:01.546Z,3.30
2017-09-17T07:22:29.097Z,2.95
2017-09-17T07:24:56.902Z,5.45
2017-09-17T07:27:24.418Z,3.58
2017-09-17T07:29:51.958Z,2.55
2017-09-17T07:32:20.291Z,3.08
2017-09-17T07:34:47.852Z,2.62
2017-09-17T07:37:15.370Z,2.28
2017-09-17T07:39:42.919Z,2.00
2017-09-17T07:42:11.220Z,1.65
2017-09-17T07:44:38.762Z,1.87
2017-09-17T07:47:06.290Z,2.05
2017-09-17T07:49:34.252Z,3.10
2017-09-17T07:52:01.975Z,2.23
2017-09-17T07:54:29.783Z,1.80
2017-09-17T07:56:57.296Z,2.50
2017-09-17T07:59:24.818Z,1.47
2017-09-17T08:01:53.146Z,22.05
2017-09-17T08:04:20.654Z,1.97
2017-09-17T08:06:48.191Z,3.23
2017-09-17T08:09:15.732Z,3.05
2017-09-17T08:11:43.249Z,2.78
2017-09-17T08:14:11.542Z,1.80
2017-09-17T08:16:39.098Z,2.10
2017-09-17T08:19:07.370Z,1.60
2017-09-17T08:21:34.928Z,1.93
2017-09-17T08:24:03.204Z,1.70
2017-09-17T08:26:31.497Z,1.80
2017-09-17T08:28:59.005Z,2.10
2017-09-17T08:31:26.539Z,2.00
2017-09-17T08:33:54.057Z,1.70
2017-09-17T08:36:22.358Z,1.73
2017-09-17T08:38:50.690Z,2.00
2017-09-17T08:41:18.224Z,2.80
2017-09-17T08:43:45.748Z,2.08
2017-09-17T08:46:13.278Z,1.73
2017-09-17T08:48:42.590Z,1.90
2017-09-17T08:51:10.105Z,2.10
2017-09-17T08:53:37.617Z,1.77
2017-09-17T08:56:05.930Z,1.80
2017-09-17T08:58:33.588Z,1.80
2017-09-17T09:01:01.111Z,2.15
2017-09-17T09:03:29.413Z,2.17
2017-09-17T09:05:56.941Z,2.20
2017-09-17T09:08:24.474Z,1.90
2017-09-17T09:10:51.989Z,1.80
2017-09-17T09:13:19.522Z,1.80
2017-09-17T09:15:47.015Z,2.10
2017-09-17T09:18:14.583Z,2.15
2017-09-17T09:20:42.096Z,2.17
2017-09-17T09:23:09.686Z,2.00
2017-09-17T09:25:37.969Z,1.75
2017-09-17T09:28:05.501Z,1.60
2017-09-17T09:30:33.803Z,1.80
2017-09-17T09:33:02.117Z,1.80
2017-09-17T09:35:30.508Z,1.50
2017-09-17T09:37:58.074Z,1.90
2017-09-17T09:40:25.651Z,1.48
2017-09-17T09:42:53.968Z,1.93
2017-09-17T09:45:21.491Z,1.90
2017-09-17T09:47:49.033Z,1.70
2017-09-17T09:50:16.538Z,2.00
2017-09-17T09:52:44.814Z,1.95
2017-09-17T09:55:12.362Z,1.40
2017-09-17T09:57:40.662Z,1.63
2017-09-17T10:00:08.239Z,1.80
2017-09-17T10:02:35.770Z,1.98
2017-09-17T10:05:04.075Z,1.80
2017-09-17T10:07:32.789Z,1.85
2017-09-17T10:10:00.460Z,1.53
2017-09-17T10:12:28.009Z,1.30
2017-09-17T10:14:55.558Z,1.53
2017-09-17T10:17:23.077Z,1.30
2017-09-17T10:19:51.380Z,1.37
2017-09-17T10:22:18.918Z,1.00
2017-09-17T10:24:47.262Z,1.13
2017-09-17T10:27:14.782Z,1.17
2017-09-17T10:29:42.306Z,1.07
2017-09-17T10:32:12.144Z,1.30
2017-09-17T10:34:39.730Z,1.20
2017-09-17T10:37:16.588Z,1.40
2017-09-17T10:39:44.143Z,1.00
2017-09-17T10:42:11.670Z,1.10
2017-09-17T10:44:39.201Z,1.10
2017-09-17T10:47:06.718Z,1.10
2017-09-17T10:49:34.279Z,1.63
2017-09-17T10:52:02.562Z,1.50
2017-09-17T10:54:30.090Z,1.23
2017-09-17T10:56:57.645Z,1.30
2017-09-17T10:59:25.177Z,1.20
2017-09-17T11:01:52.755Z,1.20
2017-09-17T11:04:20.266Z,1.20
2017-09-17T11:06:47.809Z,1.00
2017-09-17T11:09:16.073Z,1.27
2017-09-17T11:11:43.634Z,1.70
2017-09-17T11:14:11.950Z,1.00
2017-09-17T11:16:39.493Z,1.00
2017-09-17T11:19:07.042Z,1.10
2017-09-17T11:21:35.359Z,1.27
2017-09-17T11:24:02.882Z,1.10
2017-09-17T11:26:31.203Z,1.20
2017-09-17T11:28:58.735Z,1.40
2017-09-17T11:31:26.283Z,1.57
2017-09-17T11:33:54.567Z,1.27
2017-09-17T11:36:22.131Z,1.37
2017-09-17T11:38:49.663Z,1.30
2017-09-17T11:41:17.227Z,1.80
2017-09-17T11:43:45.554Z,1.20
2017-09-17T11:46:13.067Z,1.10
2017-09-17T11:48:40.594Z,0.90
2017-09-17T11:51:08.108Z,1.40
2017-09-17T11:53:35.680Z,1.40
2017-09-17T11:56:03.207Z,1.20
2017-09-17T11:58:30.757Z,1.13
2017-09-17T12:00:58.275Z,1.10
2017-09-17T12:03:25.816Z,1.17
2017-09-17T12:05:53.331Z,0.90
2017-09-17T12:08:20.861Z,1.00
2017-09-17T12:10:48.376Z,0.93
2017-09-17T12:13:16.665Z,1.10
2017-09-17T12:15:44.251Z,0.83
2017-09-17T12:18:11.797Z,0.90
2017-09-17T12:20:39.309Z,0.80
2017-09-17T12:23:06.861Z,1.00
2017-09-17T12:25:34.405Z,0.90
2017-09-17T12:28:01.974Z,0.70
2017-09-17T12:30:29.505Z,0.80
2017-09-17T12:32:57.077Z,0.70
2017-09-17T12:35:24.634Z,0.90
2017-09-17T12:37:52.159Z,0.80
2017-09-17T12:40:20.477Z,0.77
2017-09-17T12:42:48.031Z,0.80
2017-09-17T12:45:15.641Z,1.00
2017-09-17T12:47:43.957Z,0.82
2017-09-17T12:50:11.502Z,0.83
2017-09-17T12:52:39.786Z,0.90
2017-09-17T12:55:07.334Z,1.03
2017-09-17T12:57:35.630Z,1.20
2017-09-17T13:00:03.184Z,1.40
2017-09-17T13:02:30.750Z,1.00
2017-09-17T13:04:58.313Z,1.10
2017-09-17T13:07:25.848Z,1.12
2017-09-17T13:09:53.438Z,0.80
2017-09-17T13:12:20.969Z,0.80
2017-09-17T13:14:48.547Z,0.93
2017-09-17T13:17:16.109Z,1.10
2017-09-17T13:19:43.709Z,1.20
2017-09-17T13:22:11.253Z,1.00
2017-09-17T13:24:38.782Z,1.00
2017-09-17T13:27:07.061Z,0.93
2017-09-17T13:29:35.329Z,1.20
2017-09-17T13:32:03.634Z,0.90
2017-09-17T13:34:31.172Z,1.20
2017-09-17T13:36:58.708Z,1.00
2017-09-17T13:39:26.221Z,1.55
2017-09-17T13:41:53.754Z,0.97
2017-09-17T13:44:21.264Z,0.87
2017-09-17T13:46:48.789Z,1.07
2017-09-17T13:49:16.288Z,0.80
2017-09-17T13:51:43.812Z,1.00
2017-09-17T13:54:11.323Z,1.30
2017-09-17T13:56:38.850Z,0.90
2017-09-17T13:59:06.360Z,1.00
2017-09-17T14:01:36.678Z,1.00
2017-09-17T14:04:04.193Z,1.17
2017-09-17T14:09:39.645Z,1.00
2017-09-17T14:12:07.209Z,0.90
2017-09-17T14:14:34.815Z,1.10
2017-09-17T14:17:02.390Z,0.90
2017-09-17T14:19:29.924Z,1.10
2017-09-17T14:21:58.221Z,1.03
2017-09-17T14:24:25.783Z,1.30
2017-09-17T14:26:53.555Z,1.10
2017-09-17T14:29:21.113Z,1.10
2017-09-17T14:31:48.652Z,1.00
2017-09-17T14:34:16.185Z,1.40
2017-09-17T14:36:44.462Z,1.00
2017-09-17T14:39:11.988Z,7.30
2017-09-17T14:41:40.654Z,3.23
2017-09-17T14:44:08.172Z,1.27
2017-09-17T14:46:36.449Z,1.90
2017-09-17T14:49:04.766Z,1.33
2017-09-17T14:51:32.272Z,1.27
2017-09-17T14:54:02.761Z,1.57
2017-09-17T14:56:30.290Z,1.70
2017-09-17T14:58:57.856Z,1.30
2017-09-17T15:01:25.422Z,1.63
2017-09-17T15:03:59.956Z,1.50
2017-09-17T15:06:27.507Z,1.50
2017-09-17T15:08:55.169Z,1.47
2017-09-17T15:11:22.772Z,3.10
2017-09-17T15:13:50.339Z,28.20
2017-09-17T15:16:17.945Z,23.63
2017-09-17T15:18:45.466Z,2.40
2017-09-17T15:21:13.829Z,1.75
2017-09-17T15:23:43.512Z,1.93
2017-09-17T15:26:11.128Z,1.83
2017-09-17T15:28:39.427Z,2.20
2017-09-17T15:31:07.006Z,1.80
2017-09-17T15:33:34.537Z,1.87
2017-09-17T15:36:02.961Z,1.90
2017-09-17T15:38:31.343Z,1.87
2017-09-17T15:40:58.966Z,2.33
2017-09-17T15:43:26.575Z,2.70
2017-09-17T15:45:54.130Z,2.73
2017-09-17T15:48:21.705Z,2.20
2017-09-17T15:50:49.293Z,2.47
2017-09-17T15:53:37.093Z,2.15
2017-09-17T15:56:05.491Z,1.70
2017-09-17T15:58:33.079Z,1.52
2017-09-17T16:01:00.686Z,2.50
2017-09-17T16:03:29.100Z,3.00
2017-09-17T16:05:56.725Z,1.85
2017-09-17T16:08:25.070Z,2.20
2017-09-17T16:10:52.675Z,1.83
2017-09-17T16:13:20.985Z,1.60
2017-09-17T16:15:48.545Z,2.35
2017-09-17T16:18:16.169Z,2.55
2017-09-17T16:20:43.917Z,3.62
2017-09-17T16:23:11.497Z,2.97
2017-09-17T16:25:39.833Z,2.60
2017-09-17T16:28:07.410Z,2.20
2017-09-17T16:30:35.291Z,2.80
2017-09-17T16:33:03.631Z,1.87
2017-09-17T16:35:31.198Z,1.30
2017-09-17T16:37:58.796Z,2.10
2017-09-17T16:40:26.332Z,1.80
2017-09-17T16:42:54.079Z,2.10
2017-09-17T16:45:21.651Z,2.05
2017-09-17T16:47:49.283Z,1.77
2017-09-17T16:50:16.906Z,2.20
2017-09-17T16:52:44.487Z,1.55
2017-09-17T16:55:12.011Z,1.48
2017-09-17T16:57:40.369Z,2.45
2017-09-17T17:00:07.940Z,2.10
2017-09-17T17:02:36.301Z,3.42
2017-09-17T17:05:03.850Z,2.33
2017-09-17T17:07:31.407Z,2.40
2017-09-17T17:09:59.117Z,2.55
2017-09-17T17:12:26.705Z,2.10
2017-09-17T17:14:54.303Z,2.08
2017-09-17T17:17:21.842Z,1.75
2017-09-17T17:19:49.415Z,1.20
2017-09-17T17:22:16.961Z,1.52
2017-09-17T17:24:44.505Z,5.95
2017-09-17T17:27:12.102Z,1.75
2017-09-17T17:29:39.718Z,2.08
2017-09-17T17:32:07.257Z,2.97
2017-09-17T17:34:34.842Z,2.53
2017-09-17T17:37:02.398Z,1.60
2017-09-17T17:39:29.971Z,1.50
2017-09-17T17:41:57.517Z,1.10
2017-09-17T17:44:25.114Z,0.90
2017-09-17T17:46:52.657Z,1.40
2017-09-17T17:49:20.208Z,1.62
2017-09-17T17:51:47.768Z,1.20
2017-09-17T17:54:15.332Z,1.75
2017-09-17T17:56:42.887Z,6.00
2017-09-17T17:59:10.435Z,1.42
2017-09-17T18:01:38.039Z,1.40
2017-09-17T18:04:06.387Z,1.60
2017-09-17T18:06:33.921Z,1.50
2017-09-17T18:09:01.458Z,1.37
2017-09-17T18:11:29.812Z,1.20
2017-09-17T18:13:57.400Z,1.50
2017-09-17T18:16:25.178Z,1.60
2017-09-17T18:18:52.836Z,1.77
2017-09-17T18:21:20.756Z,2.20
2017-09-17T18:23:49.279Z,2.22
2017-09-17T18:26:16.884Z,1.48
2017-09-17T18:28:44.455Z,1.55
2017-09-17T18:31:12.009Z,1.40
2017-09-17T18:33:39.730Z,1.40
2017-09-17T18:36:07.282Z,1.62
2017-09-17T18:38:34.834Z,2.95
2017-09-17T18:41:02.413Z,3.05
2017-09-17T18:43:29.962Z,4.78
2017-09-17T18:45:57.498Z,5.97
2017-09-17T18:48:25.776Z,4.90
2017-09-17T18:50:59.802Z,6.30
2017-09-17T18:53:27.311Z,4.20
2017-09-17T18:55:54.849Z,4.12
2017-09-17T18:58:22.349Z,2.50
2017-09-17T19:00:49.873Z,2.42
2017-09-17T19:03:17.377Z,2.50
2017-09-17T19:05:45.659Z,2.35
2017-09-17T19:08:13.965Z,2.50
2017-09-17T19:10:41.465Z,3.28
2017-09-17T19:13:08.989Z,3.10
2017-09-17T19:15:36.494Z,3.30
2017-09-17T19:18:04.239Z,4.40
2017-09-17T19:20:31.753Z,4.65
2017-09-17T19:23:00.034Z,4.28
2017-09-17T19:25:28.337Z,3.87
2017-09-17T19:27:55.854Z,3.12
2017-09-17T19:30:24.157Z,4.00
2017-09-17T19:32:51.717Z,4.65
2017-09-17T19:35:19.232Z,4.65
2017-09-17T19:37:47.130Z,3.10
2017-09-17T19:40:15.404Z,3.50
2017-09-17T19:42:43.710Z,4.90
2017-09-17T19:45:11.238Z,6.40
2017-09-17T19:47:39.521Z,3.53
2017-09-17T19:50:07.806Z,2.47
2017-09-17T19:52:36.111Z,2.17
2017-09-17T19:55:03.617Z,3.50
2017-09-17T19:57:31.127Z,2.00
2017-09-17T19:59:58.655Z,1.77
2017-09-17T20:02:26.917Z,1.75
2017-09-17T20:04:54.447Z,2.35
2017-09-17T20:07:21.957Z,2.45
2017-09-17T20:09:50.244Z,2.20
2017-09-17T20:12:17.754Z,2.40
2017-09-17T20:14:45.292Z,1.95
2017-09-17T20:17:12.893Z,2.05
2017-09-17T20:19:40.422Z,2.60
2017-09-17T20:22:07.944Z,2.40
2017-09-17T20:24:35.479Z,7.43
2017-09-17T20:27:02.983Z,6.97
2017-09-17T20:29:30.506Z,3.50
2017-09-17T20:31:58.777Z,1.70
2017-09-17T20:34:27.079Z,2.30
2017-09-17T20:36:54.594Z,1.77
2017-09-17T20:39:22.115Z,1.50
2017-09-17T20:41:49.626Z,1.95
2017-09-17T20:44:17.149Z,1.90
2017-09-17T20:46:44.662Z,1.70
2017-09-17T20:49:12.174Z,2.03
2017-09-17T20:51:39.697Z,2.08
2017-09-17T20:54:07.209Z,1.87
2017-09-17T20:56:34.745Z,1.65
2017-09-17T20:59:02.264Z,1.50
2017-09-17T21:01:30.554Z,1.55
2017-09-17T21:03:58.050Z,1.30
2017-09-17T21:06:25.800Z,1.42
2017-09-17T21:08:53.319Z,2.10
2017-09-17T21:11:21.623Z,3.03
2017-09-17T21:13:49.121Z,2.85
2017-09-17T21:16:16.652Z,2.90
2017-09-17T21:18:44.153Z,2.90
2017-09-17T21:21:11.685Z,2.95
2017-09-17T21:23:39.181Z,2.60
2017-09-17T21:26:06.696Z,2.65
2017-09-17T21:28:34.190Z,2.40
2017-09-17T21:31:01.721Z,3.20
2017-09-17T21:33:29.225Z,3.28
2017-09-17T21:35:57.505Z,2.60
2017-09-17T21:38:25.780Z,2.72
2017-09-17T21:40:53.281Z,2.80
2017-09-17T21:43:20.817Z,4.07
2017-09-17T21:45:48.326Z,3.22
2017-09-17T21:48:15.858Z,2.72
2017-09-17T21:50:43.349Z,2.50
2017-09-17T21:53:10.870Z,2.50
2017-09-17T21:55:38.385Z,2.80
2017-09-17T21:58:05.924Z,2.70
2017-09-17T22:00:33.422Z,3.03
2017-09-17T22:03:01.721Z,3.22
2017-09-17T22:05:29.222Z,4.10
2017-09-17T22:07:56.765Z,3.60
2017-09-17T22:10:24.269Z,3.72
2017-09-17T22:12:52.563Z,4.80
2017-09-17T22:15:20.829Z,4.03
2017-09-17T22:17:48.354Z,3.67
2017-09-17T22:20:15.849Z,4.12
2017-09-17T22:22:44.139Z,4.35
2017-09-17T22:25:12.400Z,4.87
2017-09-17T22:27:40.677Z,4.35
2017-09-17T22:30:08.945Z,4.75
2017-09-17T22:32:36.461Z,4.18
2017-09-17T22:35:03.953Z,3.70
2017-09-17T22:37:31.449Z,4.20
2017-09-17T22:39:59.743Z,3.17
2017-09-17T22:42:27.244Z,3.12
2017-09-17T22:44:54.853Z,3.60
2017-09-17T22:47:22.348Z,3.60
2017-09-17T22:49:49.860Z,3.58
2017-09-17T22:52:18.151Z,3.60
2017-09-17T22:54:45.669Z,3.00
2017-09-17T22:57:13.163Z,3.15
2017-09-17T22:59:41.454Z,3.00
2017-09-17T23:02:08.958Z,3.00
2017-09-17T23:04:36.498Z,3.47
2017-09-17T23:07:03.997Z,2.60
2017-09-17T23:09:31.533Z,2.80
2017-09-17T23:11:59.027Z,2.62
2017-09-17T23:14:27.301Z,2.53
2017-09-17T23:16:55.577Z,3.15
2017-09-17T23:19:23.857Z,2.80
2017-09-17T23:21:52.117Z,2.75
2017-09-17T23:24:19.650Z,1.90
2017-09-17T23:26:47.154Z,2.40
2017-09-17T23:29:15.433Z,2.47
2017-09-17T23:31:43.693Z,2.70
2017-09-17T23:34:12.126Z,2.60
2017-09-17T23:36:39.618Z,2.30
2017-09-17T23:39:07.128Z,2.15
2017-09-17T23:41:34.629Z,2.12
2017-09-17T23:44:02.146Z,1.85
2017-09-17T23:46:29.722Z,1.52
2017-09-17T23:48:57.239Z,2.20
2017-09-17T23:51:24.737Z,1.75
2017-09-17T23:53:52.258Z,2.00
2017-09-17T23:56:19.753Z,1.70
2017-09-17T23:58:47.352Z,1.58
